sensor_id;sensor_type;location;lat;lon;timestamp;P1;durP1;ratioP1;P2;durP2;ratioP2
61127;SDS011;47013;42.664;23.242;2023-11-21T00:01:40;0.22;;;0.22;;
61127;SDS011;47013;42.664;23.242;2023-11-21T00:04:05;0.10;;;0.10;;
61127;SDS011;47013;42.664;23.242;2023-11-21T00:06:32;0.20;;;0.20;;
61127;SDS011;47013;42.664;23.242;2023-11-21T00:08:58;0.75;;;0.75;;
61127;SDS011;47013;42.664;23.242;2023-11-21T00:11:23;0.28;;;0.28;;
61127;SDS011;47013;42.664;23.242;2023-11-21T00:13:50;0.35;;;0.30;;
61127;SDS011;47013;42.664;23.242;2023-11-21T00:16:15;0.17;;;0.17;;
61127;SDS011;47013;42.664;23.242;2023-11-21T00:18:41;0.10;;;0.10;;
61127;SDS011;47013;42.664;23.242;2023-11-21T00:21:06;0.10;;;0.10;;
61127;SDS011;47013;42.664;23.242;2023-11-21T00:23:32;0.10;;;0.10;;
61127;SDS011;47013;42.664;23.242;2023-11-21T00:25:57;0.35;;;0.20;;
61127;SDS011;47013;42.664;23.242;2023-11-21T00:28:22;0.32;;;0.32;;
61127;SDS011;47013;42.664;23.242;2023-11-21T00:30:48;0.10;;;0.10;;
61127;SDS011;47013;42.664;23.242;2023-11-21T00:33:13;0.10;;;0.10;;
61127;SDS011;47013;42.664;23.242;2023-11-21T00:35:39;0.10;;;0.10;;
61127;SDS011;47013;42.664;23.242;2023-11-21T00:38:04;0.28;;;0.28;;
61127;SDS011;47013;42.664;23.242;2023-11-21T00:40:29;0.15;;;0.15;;
61127;SDS011;47013;42.664;23.242;2023-11-21T00:42:55;2.00;;;1.08;;
61127;SDS011;47013;42.664;23.242;2023-11-21T00:45:21;0.50;;;0.45;;
61127;SDS011;47013;42.664;23.242;2023-11-21T00:47:46;0.10;;;0.10;;
61127;SDS011;47013;42.664;23.242;2023-11-21T00:50:12;0.30;;;0.30;;
61127;SDS011;47013;42.664;23.242;2023-11-21T00:52:37;0.60;;;0.40;;
61127;SDS011;47013;42.664;23.242;2023-11-21T00:55:04;0.60;;;0.60;;
61127;SDS011;47013;42.664;23.242;2023-11-21T00:57:32;1.00;;;0.77;;
61127;SDS011;47013;42.664;23.242;2023-11-21T00:59:57;0.38;;;0.38;;
61127;SDS011;47013;42.664;23.242;2023-11-21T01:02:23;0.20;;;0.20;;
61127;SDS011;47013;42.664;23.242;2023-11-21T01:04:48;0.22;;;0.22;;
61127;SDS011;47013;42.664;23.242;2023-11-21T01:07:14;0.15;;;0.15;;
61127;SDS011;47013;42.664;23.242;2023-11-21T01:09:39;0.20;;;0.20;;
61127;SDS011;47013;42.664;23.242;2023-11-21T01:12:04;0.75;;;0.50;;
61127;SDS011;47013;42.664;23.242;2023-11-21T01:14:30;0.32;;;0.32;;
61127;SDS011;47013;42.664;23.242;2023-11-21T01:16:55;0.10;;;0.10;;
61127;SDS011;47013;42.664;23.242;2023-11-21T01:19:21;0.10;;;0.10;;
61127;SDS011;47013;42.664;23.242;2023-11-21T01:21:46;0.70;;;0.52;;
61127;SDS011;47013;42.664;23.242;2023-11-21T01:24:12;0.10;;;0.10;;
61127;SDS011;47013;42.664;23.242;2023-11-21T01:26:37;0.20;;;0.20;;
61127;SDS011;47013;42.664;23.242;2023-11-21T01:29:02;0.08;;;0.08;;
61127;SDS011;47013;42.664;23.242;2023-11-21T01:31:28;0.80;;;0.68;;
61127;SDS011;47013;42.664;23.242;2023-11-21T01:33:55;0.10;;;0.10;;
61127;SDS011;47013;42.664;23.242;2023-11-21T01:36:23;1.27;;;1.17;;
61127;SDS011;47013;42.664;23.242;2023-11-21T01:38:56;1.33;;;0.50;;
61127;SDS011;47013;42.664;23.242;2023-11-21T01:41:24;0.30;;;0.30;;
61127;SDS011;47013;42.664;23.242;2023-11-21T01:43:52;1.65;;;0.98;;
61127;SDS011;47013;42.664;23.242;2023-11-21T01:46:18;0.00;;;0.00;;
61127;SDS011;47013;42.664;23.242;2023-11-21T01:48:45;0.20;;;0.20;;
61127;SDS011;47013;42.664;23.242;2023-11-21T01:51:11;0.80;;;0.40;;
61127;SDS011;47013;42.664;23.242;2023-11-21T01:53:36;0.30;;;0.30;;
61127;SDS011;47013;42.664;23.242;2023-11-21T01:56:02;0.38;;;0.38;;
61127;SDS011;47013;42.664;23.242;2023-11-21T01:58:28;0.25;;;0.25;;
61127;SDS011;47013;42.664;23.242;2023-11-21T02:00:56;0.47;;;0.43;;
61127;SDS011;47013;42.664;23.242;2023-11-21T02:03:21;0.50;;;0.50;;
61127;SDS011;47013;42.664;23.242;2023-11-21T02:05:47;0.68;;;0.45;;
61127;SDS011;47013;42.664;23.242;2023-11-21T02:08:12;0.30;;;0.30;;
61127;SDS011;47013;42.664;23.242;2023-11-21T02:10:38;0.15;;;0.15;;
61127;SDS011;47013;42.664;23.242;2023-11-21T02:13:03;0.00;;;0.00;;
61127;SDS011;47013;42.664;23.242;2023-11-21T02:15:29;0.17;;;0.17;;
61127;SDS011;47013;42.664;23.242;2023-11-21T02:17:55;0.00;;;0.00;;
61127;SDS011;47013;42.664;23.242;2023-11-21T02:20:23;0.98;;;0.65;;
61127;SDS011;47013;42.664;23.242;2023-11-21T02:22:50;0.17;;;0.17;;
61127;SDS011;47013;42.664;23.242;2023-11-21T02:25:31;1.08;;;0.75;;
61127;SDS011;47013;42.664;23.242;2023-11-21T02:27:59;0.45;;;0.43;;
61127;SDS011;47013;42.664;23.242;2023-11-21T02:30:26;1.00;;;0.77;;
61127;SDS011;47013;42.664;23.242;2023-11-21T02:32:58;0.32;;;0.32;;
61127;SDS011;47013;42.664;23.242;2023-11-21T02:35:24;0.28;;;0.28;;
61127;SDS011;47013;42.664;23.242;2023-11-21T02:37:53;0.60;;;0.50;;
61127;SDS011;47013;42.664;23.242;2023-11-21T02:40:19;0.47;;;0.47;;
61127;SDS011;47013;42.664;23.242;2023-11-21T02:42:49;0.20;;;0.20;;
61127;SDS011;47013;42.664;23.242;2023-11-21T02:45:16;0.32;;;0.30;;
61127;SDS011;47013;42.664;23.242;2023-11-21T02:47:42;0.80;;;0.57;;
61127;SDS011;47013;42.664;23.242;2023-11-21T02:50:08;0.10;;;0.10;;
61127;SDS011;47013;42.664;23.242;2023-11-21T02:52:34;0.38;;;0.38;;
61127;SDS011;47013;42.664;23.242;2023-11-21T02:55:00;0.10;;;0.10;;
61127;SDS011;47013;42.664;23.242;2023-11-21T02:59:54;1.38;;;0.77;;
61127;SDS011;47013;42.664;23.242;2023-11-21T03:02:20;0.20;;;0.20;;
61127;SDS011;47013;42.664;23.242;2023-11-21T03:04:45;0.85;;;0.43;;
61127;SDS011;47013;42.664;23.242;2023-11-21T03:07:13;0.63;;;0.43;;
61127;SDS011;47013;42.664;23.242;2023-11-21T03:09:38;0.30;;;0.30;;
61127;SDS011;47013;42.664;23.242;2023-11-21T03:12:04;1.27;;;0.63;;
61127;SDS011;47013;42.664;23.242;2023-11-21T03:14:30;0.10;;;0.10;;
61127;SDS011;47013;42.664;23.242;2023-11-21T03:16:55;0.55;;;0.47;;
61127;SDS011;47013;42.664;23.242;2023-11-21T03:19:21;0.17;;;0.17;;
61127;SDS011;47013;42.664;23.242;2023-11-21T03:21:46;0.73;;;0.60;;
61127;SDS011;47013;42.664;23.242;2023-11-21T03:24:12;0.80;;;0.40;;
61127;SDS011;47013;42.664;23.242;2023-11-21T03:26:37;0.20;;;0.20;;
61127;SDS011;47013;42.664;23.242;2023-11-21T03:29:03;0.47;;;0.43;;
61127;SDS011;47013;42.664;23.242;2023-11-21T03:31:29;0.63;;;0.57;;
61127;SDS011;47013;42.664;23.242;2023-11-21T03:33:55;0.95;;;0.50;;
61127;SDS011;47013;42.664;23.242;2023-11-21T03:36:21;0.77;;;0.77;;
61127;SDS011;47013;42.664;23.242;2023-11-21T03:38:47;0.10;;;0.10;;
61127;SDS011;47013;42.664;23.242;2023-11-21T03:41:13;0.22;;;0.22;;
61127;SDS011;47013;42.664;23.242;2023-11-21T03:43:39;0.10;;;0.10;;
61127;SDS011;47013;42.664;23.242;2023-11-21T03:46:05;0.30;;;0.30;;
61127;SDS011;47013;42.664;23.242;2023-11-21T03:48:30;0.20;;;0.20;;
61127;SDS011;47013;42.664;23.242;2023-11-21T03:50:58;0.17;;;0.17;;
61127;SDS011;47013;42.664;23.242;2023-11-21T03:53:23;0.35;;;0.35;;
61127;SDS011;47013;42.664;23.242;2023-11-21T03:55:49;0.52;;;0.43;;
61127;SDS011;47013;42.664;23.242;2023-11-21T03:58:15;0.10;;;0.10;;
61127;SDS011;47013;42.664;23.242;2023-11-21T04:00:40;0.52;;;0.38;;
61127;SDS011;47013;42.664;23.242;2023-11-21T04:03:06;1.67;;;0.80;;
61127;SDS011;47013;42.664;23.242;2023-11-21T04:05:32;0.10;;;0.10;;
61127;SDS011;47013;42.664;23.242;2023-11-21T04:07:57;1.20;;;0.63;;
61127;SDS011;47013;42.664;23.242;2023-11-21T04:10:23;0.52;;;0.47;;
61127;SDS011;47013;42.664;23.242;2023-11-21T04:12:48;0.47;;;0.45;;
61127;SDS011;47013;42.664;23.242;2023-11-21T04:15:14;0.10;;;0.10;;
61127;SDS011;47013;42.664;23.242;2023-11-21T04:17:40;0.50;;;0.50;;
61127;SDS011;47013;42.664;23.242;2023-11-21T04:20:06;0.20;;;0.20;;
61127;SDS011;47013;42.664;23.242;2023-11-21T04:22:40;0.15;;;0.15;;
61127;SDS011;47013;42.664;23.242;2023-11-21T04:25:09;0.50;;;0.22;;
61127;SDS011;47013;42.664;23.242;2023-11-21T04:27:42;0.45;;;0.30;;
61127;SDS011;47013;42.664;23.242;2023-11-21T04:30:09;0.55;;;0.38;;
61127;SDS011;47013;42.664;23.242;2023-11-21T04:32:35;0.10;;;0.10;;
61127;SDS011;47013;42.664;23.242;2023-11-21T04:35:00;0.45;;;0.45;;
61127;SDS011;47013;42.664;23.242;2023-11-21T04:37:26;0.28;;;0.25;;
61127;SDS011;47013;42.664;23.242;2023-11-21T04:39:51;0.73;;;0.47;;
61127;SDS011;47013;42.664;23.242;2023-11-21T04:42:17;0.35;;;0.20;;
61127;SDS011;47013;42.664;23.242;2023-11-21T04:44:42;0.43;;;0.30;;
61127;SDS011;47013;42.664;23.242;2023-11-21T04:47:09;0.35;;;0.35;;
61127;SDS011;47013;42.664;23.242;2023-11-21T04:49:34;0.32;;;0.32;;
61127;SDS011;47013;42.664;23.242;2023-11-21T04:52:00;0.30;;;0.30;;
61127;SDS011;47013;42.664;23.242;2023-11-21T04:54:26;0.30;;;0.30;;
61127;SDS011;47013;42.664;23.242;2023-11-21T04:56:52;0.28;;;0.28;;
61127;SDS011;47013;42.664;23.242;2023-11-21T04:59:17;1.23;;;0.80;;
61127;SDS011;47013;42.664;23.242;2023-11-21T05:01:44;0.45;;;0.35;;
61127;SDS011;47013;42.664;23.242;2023-11-21T05:04:10;0.85;;;0.47;;
61127;SDS011;47013;42.664;23.242;2023-11-21T05:06:35;0.10;;;0.10;;
61127;SDS011;47013;42.664;23.242;2023-11-21T05:09:00;0.85;;;0.85;;
61127;SDS011;47013;42.664;23.242;2023-11-21T05:11:28;0.80;;;0.57;;
61127;SDS011;47013;42.664;23.242;2023-11-21T05:13:54;0.73;;;0.60;;
61127;SDS011;47013;42.664;23.242;2023-11-21T05:16:21;0.10;;;0.10;;
61127;SDS011;47013;42.664;23.242;2023-11-21T05:18:47;0.28;;;0.28;;
61127;SDS011;47013;42.664;23.242;2023-11-21T05:21:12;0.52;;;0.40;;
61127;SDS011;47013;42.664;23.242;2023-11-21T05:23:37;0.47;;;0.32;;
61127;SDS011;47013;42.664;23.242;2023-11-21T05:26:03;1.02;;;0.63;;
61127;SDS011;47013;42.664;23.242;2023-11-21T05:28:28;0.52;;;0.43;;
61127;SDS011;47013;42.664;23.242;2023-11-21T05:30:54;0.88;;;0.68;;
61127;SDS011;47013;42.664;23.242;2023-11-21T05:33:20;0.75;;;0.55;;
61127;SDS011;47013;42.664;23.242;2023-11-21T05:35:45;0.95;;;0.63;;
61127;SDS011;47013;42.664;23.242;2023-11-21T05:38:11;0.10;;;0.10;;
61127;SDS011;47013;42.664;23.242;2023-11-21T05:40:36;0.17;;;0.17;;
61127;SDS011;47013;42.664;23.242;2023-11-21T05:43:02;1.15;;;0.85;;
61127;SDS011;47013;42.664;23.242;2023-11-21T05:45:27;0.10;;;0.10;;
61127;SDS011;47013;42.664;23.242;2023-11-21T05:47:54;0.47;;;0.40;;
61127;SDS011;47013;42.664;23.242;2023-11-21T05:50:20;0.25;;;0.25;;
61127;SDS011;47013;42.664;23.242;2023-11-21T05:52:46;0.17;;;0.17;;
61127;SDS011;47013;42.664;23.242;2023-11-21T05:55:12;0.17;;;0.17;;
61127;SDS011;47013;42.664;23.242;2023-11-21T05:57:39;2.45;;;0.73;;
61127;SDS011;47013;42.664;23.242;2023-11-21T06:00:06;0.30;;;0.30;;
61127;SDS011;47013;42.664;23.242;2023-11-21T06:02:36;0.20;;;0.20;;
61127;SDS011;47013;42.664;23.242;2023-11-21T06:05:08;1.00;;;0.88;;
61127;SDS011;47013;42.664;23.242;2023-11-21T06:07:34;0.20;;;0.20;;
61127;SDS011;47013;42.664;23.242;2023-11-21T06:10:01;0.38;;;0.38;;
61127;SDS011;47013;42.664;23.242;2023-11-21T06:12:36;1.58;;;1.13;;
61127;SDS011;47013;42.664;23.242;2023-11-21T06:15:03;0.80;;;0.60;;
61127;SDS011;47013;42.664;23.242;2023-11-21T06:17:33;0.47;;;0.47;;
61127;SDS011;47013;42.664;23.242;2023-11-21T06:20:03;1.48;;;0.95;;
61127;SDS011;47013;42.664;23.242;2023-11-21T06:22:34;1.60;;;1.50;;
61127;SDS011;47013;42.664;23.242;2023-11-21T06:25:10;0.52;;;0.52;;
61127;SDS011;47013;42.664;23.242;2023-11-21T06:27:38;0.63;;;0.63;;
61127;SDS011;47013;42.664;23.242;2023-11-21T06:30:06;1.70;;;1.33;;
61127;SDS011;47013;42.664;23.242;2023-11-21T06:32:34;1.30;;;1.00;;
61127;SDS011;47013;42.664;23.242;2023-11-21T06:35:00;0.57;;;0.52;;
61127;SDS011;47013;42.664;23.242;2023-11-21T06:37:27;0.50;;;0.50;;
61127;SDS011;47013;42.664;23.242;2023-11-21T06:39:53;3.67;;;1.83;;
61127;SDS011;47013;42.664;23.242;2023-11-21T06:42:19;0.90;;;0.80;;
61127;SDS011;47013;42.664;23.242;2023-11-21T06:44:45;1.58;;;1.38;;
61127;SDS011;47013;42.664;23.242;2023-11-21T06:47:11;1.48;;;1.38;;
61127;SDS011;47013;42.664;23.242;2023-11-21T06:49:37;2.45;;;1.50;;
61127;SDS011;47013;42.664;23.242;2023-11-21T06:52:03;1.77;;;1.52;;
61127;SDS011;47013;42.664;23.242;2023-11-21T06:54:30;1.67;;;1.25;;
61127;SDS011;47013;42.664;23.242;2023-11-21T06:56:56;1.70;;;1.35;;
61127;SDS011;47013;42.664;23.242;2023-11-21T06:59:21;1.60;;;1.17;;
61127;SDS011;47013;42.664;23.242;2023-11-21T07:01:47;1.73;;;1.45;;
61127;SDS011;47013;42.664;23.242;2023-11-21T07:04:12;2.05;;;1.27;;
61127;SDS011;47013;42.664;23.242;2023-11-21T07:06:37;3.28;;;2.17;;
61127;SDS011;47013;42.664;23.242;2023-11-21T07:09:03;3.20;;;2.38;;
61127;SDS011;47013;42.664;23.242;2023-11-21T07:11:28;1.75;;;1.27;;
61127;SDS011;47013;42.664;23.242;2023-11-21T07:13:54;0.90;;;0.75;;
61127;SDS011;47013;42.664;23.242;2023-11-21T07:16:19;2.15;;;1.60;;
61127;SDS011;47013;42.664;23.242;2023-11-21T07:18:44;1.27;;;1.05;;
61127;SDS011;47013;42.664;23.242;2023-11-21T07:21:10;2.22;;;1.70;;
61127;SDS011;47013;42.664;23.242;2023-11-21T07:23:37;0.57;;;0.57;;
61127;SDS011;47013;42.664;23.242;2023-11-21T07:26:03;1.25;;;1.02;;
61127;SDS011;47013;42.664;23.242;2023-11-21T07:28:31;2.20;;;1.60;;
61127;SDS011;47013;42.664;23.242;2023-11-21T07:30:56;1.85;;;1.38;;
61127;SDS011;47013;42.664;23.242;2023-11-21T07:33:22;8.27;;;3.47;;
61127;SDS011;47013;42.664;23.242;2023-11-21T07:35:47;1.95;;;1.50;;
61127;SDS011;47013;42.664;23.242;2023-11-21T07:38:13;3.47;;;1.42;;
61127;SDS011;47013;42.664;23.242;2023-11-21T07:40:38;0.65;;;0.65;;
61127;SDS011;47013;42.664;23.242;2023-11-21T07:43:04;2.33;;;1.35;;
61127;SDS011;47013;42.664;23.242;2023-11-21T07:45:30;4.38;;;2.75;;
61127;SDS011;47013;42.664;23.242;2023-11-21T07:47:56;1.85;;;1.33;;
61127;SDS011;47013;42.664;23.242;2023-11-21T07:50:21;1.73;;;1.30;;
61127;SDS011;47013;42.664;23.242;2023-11-21T07:52:48;0.77;;;0.77;;
61127;SDS011;47013;42.664;23.242;2023-11-21T07:55:14;2.25;;;1.48;;
61127;SDS011;47013;42.664;23.242;2023-11-21T07:57:40;4.97;;;2.78;;
61127;SDS011;47013;42.664;23.242;2023-11-21T08:00:06;4.05;;;2.03;;
61127;SDS011;47013;42.664;23.242;2023-11-21T08:02:34;3.22;;;2.25;;
61127;SDS011;47013;42.664;23.242;2023-11-21T08:05:00;5.25;;;2.90;;
61127;SDS011;47013;42.664;23.242;2023-11-21T08:07:25;4.95;;;1.77;;
61127;SDS011;47013;42.664;23.242;2023-11-21T08:09:51;2.72;;;1.98;;
61127;SDS011;47013;42.664;23.242;2023-11-21T08:12:17;2.05;;;1.40;;
61127;SDS011;47013;42.664;23.242;2023-11-21T08:14:45;2.08;;;1.45;;
61127;SDS011;47013;42.664;23.242;2023-11-21T08:17:10;1.98;;;1.17;;
61127;SDS011;47013;42.664;23.242;2023-11-21T08:19:36;2.63;;;1.83;;
61127;SDS011;47013;42.664;23.242;2023-11-21T08:22:02;4.47;;;1.40;;
61127;SDS011;47013;42.664;23.242;2023-11-21T08:24:28;2.00;;;1.50;;
61127;SDS011;47013;42.664;23.242;2023-11-21T08:26:54;3.47;;;2.03;;
61127;SDS011;47013;42.664;23.242;2023-11-21T08:29:19;1.40;;;1.17;;
61127;SDS011;47013;42.664;23.242;2023-11-21T08:31:45;10.02;;;2.20;;
61127;SDS011;47013;42.664;23.242;2023-11-21T08:34:12;0.45;;;0.45;;
61127;SDS011;47013;42.664;23.242;2023-11-21T08:36:41;2.25;;;1.67;;
61127;SDS011;47013;42.664;23.242;2023-11-21T08:39:10;2.00;;;1.65;;
61127;SDS011;47013;42.664;23.242;2023-11-21T08:41:36;1.98;;;1.67;;
61127;SDS011;47013;42.664;23.242;2023-11-21T08:44:01;2.17;;;0.98;;
61127;SDS011;47013;42.664;23.242;2023-11-21T08:46:27;2.75;;;1.88;;
61127;SDS011;47013;42.664;23.242;2023-11-21T08:48:52;3.55;;;3.10;;
61127;SDS011;47013;42.664;23.242;2023-11-21T08:51:18;2.80;;;1.80;;
61127;SDS011;47013;42.664;23.242;2023-11-21T08:53:43;2.53;;;1.48;;
61127;SDS011;47013;42.664;23.242;2023-11-21T08:56:15;1.30;;;1.13;;
61127;SDS011;47013;42.664;23.242;2023-11-21T08:58:40;1.17;;;1.08;;
61127;SDS011;47013;42.664;23.242;2023-11-21T09:01:06;2.22;;;1.85;;
61127;SDS011;47013;42.664;23.242;2023-11-21T09:03:32;2.20;;;1.45;;
61127;SDS011;47013;42.664;23.242;2023-11-21T09:05:59;3.10;;;1.88;;
61127;SDS011;47013;42.664;23.242;2023-11-21T09:08:25;1.23;;;1.13;;
61127;SDS011;47013;42.664;23.242;2023-11-21T09:10:50;1.95;;;1.38;;
61127;SDS011;47013;42.664;23.242;2023-11-21T09:13:17;2.65;;;1.75;;
61127;SDS011;47013;42.664;23.242;2023-11-21T09:15:43;2.15;;;1.70;;
61127;SDS011;47013;42.664;23.242;2023-11-21T09:18:11;0.95;;;0.68;;
61127;SDS011;47013;42.664;23.242;2023-11-21T09:20:40;4.22;;;2.20;;
61127;SDS011;47013;42.664;23.242;2023-11-21T09:23:07;1.75;;;1.42;;
61127;SDS011;47013;42.664;23.242;2023-11-21T09:25:33;2.20;;;1.77;;
61127;SDS011;47013;42.664;23.242;2023-11-21T09:27:58;1.15;;;0.82;;
61127;SDS011;47013;42.664;23.242;2023-11-21T09:30:23;2.53;;;1.58;;
61127;SDS011;47013;42.664;23.242;2023-11-21T09:32:50;1.48;;;1.13;;
61127;SDS011;47013;42.664;23.242;2023-11-21T09:35:15;1.25;;;1.13;;
61127;SDS011;47013;42.664;23.242;2023-11-21T09:37:43;2.28;;;1.42;;
61127;SDS011;47013;42.664;23.242;2023-11-21T09:40:12;1.60;;;1.20;;
61127;SDS011;47013;42.664;23.242;2023-11-21T09:42:39;1.17;;;1.02;;
61127;SDS011;47013;42.664;23.242;2023-11-21T09:45:24;3.50;;;1.67;;
61127;SDS011;47013;42.664;23.242;2023-11-21T09:47:51;0.68;;;0.68;;
61127;SDS011;47013;42.664;23.242;2023-11-21T09:50:18;0.77;;;0.77;;
61127;SDS011;47013;42.664;23.242;2023-11-21T09:55:27;1.60;;;1.23;;
61127;SDS011;47013;42.664;23.242;2023-11-21T09:58:00;1.25;;;0.95;;
61127;SDS011;47013;42.664;23.242;2023-11-21T10:00:27;1.70;;;1.20;;
61127;SDS011;47013;42.664;23.242;2023-11-21T10:02:54;1.50;;;1.10;;
61127;SDS011;47013;42.664;23.242;2023-11-21T10:07:49;2.15;;;1.33;;
61127;SDS011;47013;42.664;23.242;2023-11-21T10:10:15;2.40;;;0.95;;
61127;SDS011;47013;42.664;23.242;2023-11-21T10:15:13;1.83;;;0.93;;
61127;SDS011;47013;42.664;23.242;2023-11-21T10:17:41;0.32;;;0.25;;
61127;SDS011;47013;42.664;23.242;2023-11-21T10:20:13;0.98;;;0.82;;
61127;SDS011;47013;42.664;23.242;2023-11-21T10:22:39;1.55;;;1.05;;
61127;SDS011;47013;42.664;23.242;2023-11-21T10:25:09;0.63;;;0.55;;
61127;SDS011;47013;42.664;23.242;2023-11-21T10:27:35;1.65;;;0.70;;
61127;SDS011;47013;42.664;23.242;2023-11-21T10:30:02;0.50;;;0.50;;
61127;SDS011;47013;42.664;23.242;2023-11-21T10:32:29;0.52;;;0.52;;
61127;SDS011;47013;42.664;23.242;2023-11-21T10:34:58;0.25;;;0.25;;
61127;SDS011;47013;42.664;23.242;2023-11-21T10:37:32;0.60;;;0.60;;
61127;SDS011;47013;42.664;23.242;2023-11-21T10:40:00;0.65;;;0.60;;
61127;SDS011;47013;42.664;23.242;2023-11-21T10:42:25;0.40;;;0.40;;
61127;SDS011;47013;42.664;23.242;2023-11-21T10:44:52;2.65;;;1.35;;
61127;SDS011;47013;42.664;23.242;2023-11-21T10:47:18;0.82;;;0.50;;
61127;SDS011;47013;42.664;23.242;2023-11-21T10:49:45;0.20;;;0.20;;
61127;SDS011;47013;42.664;23.242;2023-11-21T10:54:42;0.55;;;0.50;;
61127;SDS011;47013;42.664;23.242;2023-11-21T10:57:08;0.57;;;0.55;;
61127;SDS011;47013;42.664;23.242;2023-11-21T10:59:36;1.20;;;0.63;;
61127;SDS011;47013;42.664;23.242;2023-11-21T11:02:04;0.52;;;0.52;;
61127;SDS011;47013;42.664;23.242;2023-11-21T11:04:46;1.48;;;0.75;;
61127;SDS011;47013;42.664;23.242;2023-11-21T11:07:13;2.38;;;1.35;;
61127;SDS011;47013;42.664;23.242;2023-11-21T11:09:41;0.35;;;0.30;;
61127;SDS011;47013;42.664;23.242;2023-11-21T11:12:06;0.50;;;0.50;;
61127;SDS011;47013;42.664;23.242;2023-11-21T11:14:35;1.20;;;0.55;;
61127;SDS011;47013;42.664;23.242;2023-11-21T11:17:01;1.15;;;0.68;;
61127;SDS011;47013;42.664;23.242;2023-11-21T11:19:27;0.30;;;0.30;;
61127;SDS011;47013;42.664;23.242;2023-11-21T11:21:59;0.38;;;0.38;;
61127;SDS011;47013;42.664;23.242;2023-11-21T11:27:35;0.50;;;0.47;;
61127;SDS011;47013;42.664;23.242;2023-11-21T11:30:19;1.38;;;0.70;;
61127;SDS011;47013;42.664;23.242;2023-11-21T11:33:10;0.50;;;0.50;;
61127;SDS011;47013;42.664;23.242;2023-11-21T11:38:36;0.10;;;0.10;;
61127;SDS011;47013;42.664;23.242;2023-11-21T11:41:02;0.75;;;0.40;;
61127;SDS011;47013;42.664;23.242;2023-11-21T11:43:29;0.60;;;0.60;;
61127;SDS011;47013;42.664;23.242;2023-11-21T11:45:56;0.40;;;0.40;;
61127;SDS011;47013;42.664;23.242;2023-11-21T11:48:24;1.65;;;1.25;;
61127;SDS011;47013;42.664;23.242;2023-11-21T11:51:06;0.50;;;0.40;;
61127;SDS011;47013;42.664;23.242;2023-11-21T11:53:36;1.05;;;0.43;;
61127;SDS011;47013;42.664;23.242;2023-11-21T11:58:53;1.27;;;0.65;;
61127;SDS011;47013;42.664;23.242;2023-11-21T12:01:19;0.50;;;0.50;;
61127;SDS011;47013;42.664;23.242;2023-11-21T12:06:39;0.47;;;0.47;;
61127;SDS011;47013;42.664;23.242;2023-11-21T12:09:06;0.28;;;0.28;;
61127;SDS011;47013;42.664;23.242;2023-11-21T12:11:32;0.52;;;0.52;;
61127;SDS011;47013;42.664;23.242;2023-11-21T12:13:58;0.45;;;0.43;;
61127;SDS011;47013;42.664;23.242;2023-11-21T12:16:25;0.95;;;0.85;;
61127;SDS011;47013;42.664;23.242;2023-11-21T12:18:52;0.70;;;0.57;;
61127;SDS011;47013;42.664;23.242;2023-11-21T12:21:19;0.50;;;0.50;;
61127;SDS011;47013;42.664;23.242;2023-11-21T12:23:45;0.38;;;0.35;;
61127;SDS011;47013;42.664;23.242;2023-11-21T12:26:11;0.52;;;0.52;;
61127;SDS011;47013;42.664;23.242;2023-11-21T12:28:37;1.92;;;1.30;;
61127;SDS011;47013;42.664;23.242;2023-11-21T12:31:03;1.10;;;0.95;;
61127;SDS011;47013;42.664;23.242;2023-11-21T12:33:31;0.40;;;0.40;;
61127;SDS011;47013;42.664;23.242;2023-11-21T12:38:25;0.95;;;0.60;;
61127;SDS011;47013;42.664;23.242;2023-11-21T12:40:59;0.77;;;0.45;;
61127;SDS011;47013;42.664;23.242;2023-11-21T12:43:25;0.98;;;0.82;;
61127;SDS011;47013;42.664;23.242;2023-11-21T12:45:50;1.40;;;1.00;;
61127;SDS011;47013;42.664;23.242;2023-11-21T12:48:17;0.40;;;0.40;;
61127;SDS011;47013;42.664;23.242;2023-11-21T12:50:49;0.20;;;0.20;;
61127;SDS011;47013;42.664;23.242;2023-11-21T12:53:18;0.40;;;0.40;;
61127;SDS011;47013;42.664;23.242;2023-11-21T12:55:44;0.38;;;0.38;;
61127;SDS011;47013;42.664;23.242;2023-11-21T12:58:15;0.20;;;0.20;;
61127;SDS011;47013;42.664;23.242;2023-11-21T13:00:47;0.38;;;0.38;;
61127;SDS011;47013;42.664;23.242;2023-11-21T13:03:15;0.95;;;0.73;;
61127;SDS011;47013;42.664;23.242;2023-11-21T13:05:43;1.02;;;0.63;;
61127;SDS011;47013;42.664;23.242;2023-11-21T13:08:10;1.92;;;0.60;;
61127;SDS011;47013;42.664;23.242;2023-11-21T13:10:41;0.55;;;0.55;;
61127;SDS011;47013;42.664;23.242;2023-11-21T13:13:12;7.03;;;1.20;;
61127;SDS011;47013;42.664;23.242;2023-11-21T13:15:51;0.40;;;0.40;;
61127;SDS011;47013;42.664;23.242;2023-11-21T13:18:25;0.15;;;0.15;;
61127;SDS011;47013;42.664;23.242;2023-11-21T13:20:52;0.55;;;0.45;;
61127;SDS011;47013;42.664;23.242;2023-11-21T13:23:20;1.05;;;0.77;;
61127;SDS011;47013;42.664;23.242;2023-11-21T13:25:45;0.45;;;0.45;;
61127;SDS011;47013;42.664;23.242;2023-11-21T13:28:12;0.08;;;0.08;;
61127;SDS011;47013;42.664;23.242;2023-11-21T13:30:37;0.90;;;0.70;;
61127;SDS011;47013;42.664;23.242;2023-11-21T13:33:05;0.10;;;0.10;;
61127;SDS011;47013;42.664;23.242;2023-11-21T13:35:32;0.55;;;0.52;;
61127;SDS011;47013;42.664;23.242;2023-11-21T13:38:07;1.02;;;0.40;;
61127;SDS011;47013;42.664;23.242;2023-11-21T13:40:35;0.93;;;0.80;;
61127;SDS011;47013;42.664;23.242;2023-11-21T13:43:08;1.30;;;0.75;;
61127;SDS011;47013;42.664;23.242;2023-11-21T13:45:37;0.82;;;0.52;;
61127;SDS011;47013;42.664;23.242;2023-11-21T13:48:07;0.40;;;0.38;;
61127;SDS011;47013;42.664;23.242;2023-11-21T13:50:39;1.13;;;0.88;;
61127;SDS011;47013;42.664;23.242;2023-11-21T13:53:11;1.10;;;0.73;;
61127;SDS011;47013;42.664;23.242;2023-11-21T13:55:49;0.65;;;0.63;;
61127;SDS011;47013;42.664;23.242;2023-11-21T13:58:16;1.02;;;0.75;;
61127;SDS011;47013;42.664;23.242;2023-11-21T14:00:48;1.15;;;0.95;;
61127;SDS011;47013;42.664;23.242;2023-11-21T14:03:21;1.90;;;1.23;;
61127;SDS011;47013;42.664;23.242;2023-11-21T14:05:48;0.57;;;0.50;;
61127;SDS011;47013;42.664;23.242;2023-11-21T14:08:25;0.63;;;0.63;;
61127;SDS011;47013;42.664;23.242;2023-11-21T14:10:54;0.85;;;0.85;;
61127;SDS011;47013;42.664;23.242;2023-11-21T14:13:24;0.70;;;0.70;;
61127;SDS011;47013;42.664;23.242;2023-11-21T14:15:50;1.48;;;1.00;;
61127;SDS011;47013;42.664;23.242;2023-11-21T14:18:23;0.30;;;0.20;;
61127;SDS011;47013;42.664;23.242;2023-11-21T14:20:55;0.60;;;0.40;;
61127;SDS011;47013;42.664;23.242;2023-11-21T14:23:21;1.35;;;0.82;;
61127;SDS011;47013;42.664;23.242;2023-11-21T14:25:48;0.45;;;0.30;;
61127;SDS011;47013;42.664;23.242;2023-11-21T14:28:15;2.92;;;0.88;;
61127;SDS011;47013;42.664;23.242;2023-11-21T14:30:41;5.22;;;1.08;;
61127;SDS011;47013;42.664;23.242;2023-11-21T14:33:09;0.45;;;0.45;;
61127;SDS011;47013;42.664;23.242;2023-11-21T14:35:36;1.25;;;0.90;;
61127;SDS011;47013;42.664;23.242;2023-11-21T14:38:02;1.45;;;1.15;;
61127;SDS011;47013;42.664;23.242;2023-11-21T14:40:30;1.13;;;1.02;;
61127;SDS011;47013;42.664;23.242;2023-11-21T14:42:59;0.38;;;0.38;;
61127;SDS011;47013;42.664;23.242;2023-11-21T14:45:30;0.30;;;0.30;;
61127;SDS011;47013;42.664;23.242;2023-11-21T14:47:56;0.60;;;0.60;;
61127;SDS011;47013;42.664;23.242;2023-11-21T14:50:31;0.28;;;0.28;;
61127;SDS011;47013;42.664;23.242;2023-11-21T14:53:11;0.55;;;0.40;;
61127;SDS011;47013;42.664;23.242;2023-11-21T14:55:40;0.30;;;0.30;;
61127;SDS011;47013;42.664;23.242;2023-11-21T14:58:15;0.65;;;0.57;;
61127;SDS011;47013;42.664;23.242;2023-11-21T15:00:46;0.40;;;0.30;;